createdAt,value
2023-02-04T00:01:35.577Z,7.7
2023-02-04T00:04:37.539Z,10.7
2023-02-04T00:07:41.250Z,12
2023-02-04T00:10:41.435Z,11.9
2023-02-04T00:13:43.389Z,11.2
2023-02-04T00:16:45.349Z,9
2023-02-04T00:19:47.308Z,10.4
2023-02-04T00:22:49.296Z,8.5
2023-02-04T00:25:51.242Z,9.7
2023-02-04T00:28:53.194Z,10.2
2023-02-04T00:31:55.308Z,10.8
2023-02-04T00:34:57.159Z,10.3
2023-02-04T00:37:59.111Z,10.1
2023-02-04T00:41:01.125Z,11.2
2023-02-04T00:44:02.989Z,9.7
2023-02-04T00:47:04.959Z,11.8
2023-02-04T00:50:06.934Z,9.4
2023-02-04T00:53:08.908Z,10.4
2023-02-04T00:56:10.824Z,9.1
2023-02-04T00:59:12.802Z,7.5
2023-02-04T01:02:14.754Z,11.2
2023-02-04T01:05:16.750Z,6.7
2023-02-04T01:08:18.699Z,7.8
2023-02-04T01:11:20.664Z,10.5
2023-02-04T01:14:22.628Z,9.4
2023-02-04T01:17:24.594Z,8.3
2023-02-04T01:20:26.565Z,9
2023-02-04T01:23:28.516Z,9.4
2023-02-04T01:26:30.522Z,11.2
2023-02-04T01:29:32.495Z,10.4
2023-02-04T01:32:34.449Z,8.2
2023-02-04T01:35:36.425Z,7.9
2023-02-04T01:38:38.360Z,13
2023-02-04T01:41:40.328Z,11.9
2023-02-04T01:44:42.260Z,10.8
2023-02-04T01:47:44.217Z,13.4
2023-02-04T01:50:46.171Z,8
2023-02-04T01:53:48.155Z,9
2023-02-04T01:56:50.102Z,8.9
2023-02-04T01:59:52.034Z,9.7
2023-02-04T02:02:53.983Z,10.3
2023-02-04T02:05:55.990Z,10.9
2023-02-04T02:08:57.915Z,11
2023-02-04T02:11:59.906Z,8.6
2023-02-04T02:15:01.836Z,11.2
2023-02-04T02:18:03.838Z,11.4
2023-02-04T02:21:05.780Z,9.3
2023-02-04T02:24:07.814Z,11.6
2023-02-04T02:27:09.704Z,8.3
2023-02-04T02:30:11.631Z,7.4
2023-02-04T02:33:13.587Z,12.8
2023-02-04T02:36:15.553Z,9.8
2023-02-04T02:39:17.507Z,12
2023-02-04T02:42:19.478Z,13.5
2023-02-04T02:45:21.437Z,7.3
2023-02-04T02:48:23.373Z,8.9
2023-02-04T02:51:25.372Z,12.3
2023-02-04T02:54:27.342Z,13.8
2023-02-04T02:57:29.271Z,12.5
2023-02-04T03:00:31.516Z,9.6
2023-02-04T03:03:33.174Z,8.7
2023-02-04T03:06:35.144Z,10.2
2023-02-04T03:09:37.097Z,9.4
2023-02-04T03:12:39.068Z,11.2
2023-02-04T03:15:41.079Z,8.2
2023-02-04T03:18:42.981Z,9.5
2023-02-04T03:21:44.949Z,10.4
2023-02-04T03:24:46.919Z,9.8
2023-02-04T03:27:48.895Z,11.3
2023-02-04T03:30:50.903Z,12.8
2023-02-04T03:33:52.799Z,10.8
2023-02-04T03:36:54.786Z,10.8
2023-02-04T03:39:56.751Z,9.8
2023-02-04T03:42:58.675Z,11.1
2023-02-04T03:46:00.669Z,14.7
2023-02-04T03:49:02.638Z,17.1
2023-02-04T03:52:04.586Z,15.2
2023-02-04T03:55:06.515Z,14.9
2023-02-04T03:58:08.509Z,14
2023-02-04T04:01:10.467Z,13.3
2023-02-04T04:04:12.386Z,13.1
2023-02-04T04:07:14.373Z,21
2023-02-04T04:10:16.373Z,14.8
2023-02-04T04:13:18.312Z,15.8
2023-02-04T04:16:20.337Z,10.1
2023-02-04T04:19:22.231Z,16
2023-02-04T04:22:24.200Z,11.3
2023-02-04T04:25:26.182Z,17.3
2023-02-04T04:28:28.145Z,20.1
2023-02-04T04:31:30.236Z,13.3
2023-02-04T04:34:32.038Z,11.3
2023-02-04T04:37:34.002Z,12.7
2023-02-04T04:40:35.981Z,12.5
2023-02-04T04:43:37.933Z,12.8
2023-02-04T04:46:39.888Z,15.5
2023-02-04T04:49:41.854Z,16.2
2023-02-04T04:52:43.780Z,11.3
2023-02-04T04:55:45.739Z,13.1
2023-02-04T04:58:47.717Z,17.6
2023-02-04T05:01:49.733Z,15.3
2023-02-04T05:04:51.715Z,12.9
2023-02-04T05:07:53.635Z,12.5
2023-02-04T05:10:55.580Z,14.3
2023-02-04T05:13:57.551Z,15.7
2023-02-04T05:16:59.499Z,16.4
2023-02-04T05:20:01.559Z,15.7
2023-02-04T05:23:05.432Z,19.9
2023-02-04T05:26:05.414Z,17.7
2023-02-04T05:29:08.304Z,12.2
2023-02-04T05:32:09.302Z,15.2
2023-02-04T05:35:11.265Z,9.5
2023-02-04T05:38:13.230Z,13.8
2023-02-04T05:41:15.221Z,12.5
2023-02-04T05:44:17.176Z,13.2
2023-02-04T05:47:19.123Z,12.5
2023-02-04T05:50:21.059Z,12.3
2023-02-04T05:53:24.101Z,14.6
2023-02-04T05:56:25.006Z,13
2023-02-04T05:59:27.015Z,11.9
2023-02-04T06:02:28.956Z,18.8
2023-02-04T06:05:30.896Z,16.1
2023-02-04T06:08:32.909Z,15.3
2023-02-04T06:11:34.835Z,17.2
2023-02-04T06:14:36.892Z,15.5
2023-02-04T06:17:38.734Z,19.2
2023-02-04T06:20:40.731Z,14.9
2023-02-04T06:23:42.692Z,20.3
2023-02-04T06:26:44.657Z,13.3
2023-02-04T06:29:46.579Z,19.6
2023-02-04T06:32:48.555Z,11.6
2023-02-04T06:35:50.520Z,16.9
2023-02-04T06:38:52.472Z,14.2
2023-02-04T06:41:54.430Z,11.1
2023-02-04T06:44:56.383Z,18.5
2023-02-04T06:47:58.376Z,18.7
2023-02-04T06:51:00.320Z,14
2023-02-04T06:54:02.272Z,16.5
2023-02-04T06:57:04.232Z,17.6
2023-02-04T07:00:06.217Z,10.3
2023-02-04T07:03:08.184Z,15.7
2023-02-04T07:06:10.128Z,14.1
2023-02-04T07:09:12.083Z,17.2
2023-02-04T07:12:15.943Z,21.5
2023-02-04T07:15:16.067Z,13.9
2023-02-04T07:18:18.045Z,15.7
2023-02-04T07:21:19.979Z,18.2
2023-02-04T07:24:21.950Z,16.3
2023-02-04T07:27:23.894Z,14.9
2023-02-04T07:30:25.838Z,17.2
2023-02-04T07:33:27.809Z,21.2
2023-02-04T07:36:29.890Z,25.2
2023-02-04T07:39:31.908Z,20
2023-02-04T07:42:33.665Z,18.4
2023-02-04T07:45:35.661Z,20.4
2023-02-04T07:48:37.640Z,22.9
2023-02-04T07:51:39.523Z,11.3
2023-02-04T07:54:41.480Z,22.8
2023-02-04T07:57:43.436Z,20.6
2023-02-04T08:00:45.410Z,13.5
2023-02-04T08:03:47.355Z,18.4
2023-02-04T08:06:49.314Z,19.3
2023-02-04T08:09:51.281Z,21.8
2023-02-04T08:12:53.235Z,15.3
2023-02-04T08:15:55.276Z,14.4
2023-02-04T08:18:57.164Z,19.1
2023-02-04T08:21:59.140Z,18.6
2023-02-04T08:25:01.094Z,19.5
2023-02-04T08:28:03.122Z,12.9
2023-02-04T08:31:05.106Z,19.8
2023-02-04T08:34:06.988Z,17.2
2023-02-04T08:37:08.977Z,15.4
2023-02-04T08:40:10.917Z,21.7
2023-02-04T08:43:12.868Z,17.3
2023-02-04T08:46:14.872Z,18.8
2023-02-04T08:49:16.778Z,12.7
2023-02-04T08:52:18.726Z,14
2023-02-04T08:55:20.721Z,16
2023-02-04T08:58:22.692Z,16.1
2023-02-04T09:01:24.674Z,16.7
2023-02-04T09:04:26.616Z,17.2
2023-02-04T09:07:28.575Z,19.3
2023-02-04T09:10:30.769Z,16.2
2023-02-04T09:13:32.540Z,12.1
2023-02-04T09:16:34.515Z,15.9
2023-02-04T09:19:36.452Z,17.1
2023-02-04T09:22:38.373Z,20.7
2023-02-04T09:25:40.340Z,18
2023-02-04T09:28:42.285Z,16.3
2023-02-04T09:31:44.340Z,18.6
2023-02-04T09:34:46.234Z,15.6
2023-02-04T09:37:48.166Z,17.2
2023-02-04T09:40:50.162Z,15.2
2023-02-04T09:43:52.082Z,15.9
2023-02-04T09:46:54.069Z,17.2
2023-02-04T09:49:56.044Z,15.5
2023-02-04T09:52:58.079Z,16
2023-02-04T09:55:59.953Z,15.2
2023-02-04T09:59:01.911Z,16.1
2023-02-04T10:02:03.868Z,17
2023-02-04T10:05:05.831Z,16.4
2023-02-04T10:08:07.783Z,17.6
2023-02-04T10:11:09.805Z,16.3
2023-02-04T10:14:11.764Z,8.5
2023-02-04T10:17:13.741Z,16.5
2023-02-04T10:20:15.705Z,13.2
2023-02-04T10:23:17.669Z,21.3
2023-02-04T10:26:19.585Z,16.8
2023-02-04T10:29:21.592Z,14.5
2023-02-04T10:32:23.532Z,12.7
2023-02-04T10:35:25.484Z,19.3
2023-02-04T10:38:27.454Z,16.5
2023-02-04T10:41:29.417Z,14
2023-02-04T10:44:31.420Z,12.2
2023-02-04T10:47:33.348Z,13.2
2023-02-04T10:50:35.381Z,11.1
2023-02-04T10:53:37.397Z,14.4
2023-02-04T10:56:39.294Z,14.7
2023-02-04T10:59:41.273Z,10.2
2023-02-04T11:02:43.209Z,11.2
2023-02-04T11:05:45.198Z,11.8
2023-02-04T11:08:47.868Z,13.8
2023-02-04T11:11:49.096Z,9.3
2023-02-04T11:14:51.108Z,11.9
2023-02-04T11:17:53.101Z,11.5
2023-02-04T11:20:55.047Z,11.1
2023-02-04T11:23:56.999Z,8.2
2023-02-04T11:26:58.959Z,10.6
2023-02-04T11:30:00.909Z,8.7
2023-02-04T11:33:02.924Z,11.6
2023-02-04T11:36:04.872Z,11.6
2023-02-04T11:39:06.800Z,8.5
2023-02-04T11:42:08.770Z,8.7
2023-02-04T11:45:10.735Z,7.2
2023-02-04T11:48:12.703Z,11.1
2023-02-04T11:51:14.662Z,12
2023-02-04T11:54:16.634Z,6.5
2023-02-04T11:57:18.581Z,6.4
2023-02-04T12:00:20.554Z,8.7
2023-02-04T12:03:22.536Z,13.8
2023-02-04T12:06:24.528Z,10.5
2023-02-04T12:09:26.471Z,7.5
2023-02-04T12:15:30.802Z,10.4
2023-02-04T12:18:32.492Z,9.2
2023-02-04T12:21:34.300Z,13
2023-02-04T12:24:36.306Z,8.4
2023-02-04T12:27:38.216Z,12.4
2023-02-04T12:30:40.229Z,7.5
2023-02-04T12:33:42.143Z,8.8
2023-02-04T12:36:44.119Z,14
2023-02-04T12:39:46.071Z,10.3
2023-02-04T12:42:48.033Z,10.9
2023-02-04T12:45:50.150Z,10.7
2023-02-04T12:48:51.972Z,8.9
2023-02-04T12:51:53.912Z,13.8
2023-02-04T12:54:55.861Z,9.4
2023-02-04T12:57:57.834Z,9.8
2023-02-04T13:00:59.798Z,11.3
2023-02-04T13:04:01.754Z,12.9
2023-02-04T13:07:03.836Z,10.5
2023-02-04T13:10:05.700Z,12.7
2023-02-04T13:13:07.665Z,9.5
2023-02-04T13:16:09.637Z,11.1
2023-02-04T13:19:11.556Z,13
2023-02-04T13:22:13.508Z,12.3
2023-02-04T13:25:15.470Z,10.8
2023-02-04T13:28:17.528Z,11.1
2023-02-04T13:31:19.462Z,12.1
2023-02-04T13:34:21.378Z,10.1
2023-02-04T13:37:23.339Z,12.1
2023-02-04T13:40:25.272Z,10
2023-02-04T13:43:27.228Z,12.4
2023-02-04T13:46:29.185Z,8.3
2023-02-04T13:49:31.170Z,13.6
2023-02-04T13:52:33.118Z,16.2
2023-02-04T13:55:35.140Z,14.2
2023-02-04T13:58:37.215Z,7.9
2023-02-04T14:01:39.050Z,8.9
2023-02-04T14:04:40.971Z,12.8
2023-02-04T14:07:42.959Z,9.9
2023-02-04T14:10:44.920Z,10.2
2023-02-04T14:13:46.900Z,7.3
2023-02-04T14:16:48.928Z,17.3
2023-02-04T14:19:50.807Z,8
2023-02-04T14:22:52.753Z,8.6
2023-02-04T14:25:54.722Z,9.2
2023-02-04T14:28:56.667Z,12.8
2023-02-04T14:31:58.695Z,13.6
2023-02-04T14:35:00.589Z,10.3
2023-02-04T14:38:02.776Z,10.5
2023-02-04T14:41:04.540Z,8.3
2023-02-04T14:44:06.466Z,8.3
2023-02-04T14:47:08.481Z,11.8
2023-02-04T14:50:10.415Z,9
2023-02-04T14:53:12.372Z,9.1
2023-02-04T14:56:14.337Z,7.4
2023-02-04T14:59:16.302Z,12.5
2023-02-04T15:02:18.283Z,9.8
2023-02-04T15:05:20.231Z,8.7
2023-02-04T15:08:22.178Z,9.1
2023-02-04T15:11:24.142Z,6.4
2023-02-04T15:14:26.111Z,8.9
2023-02-04T15:17:28.071Z,9.7
2023-02-04T15:20:30.280Z,10.9
2023-02-04T15:23:32.017Z,9.2
2023-02-04T15:26:33.965Z,11.8
2023-02-04T15:29:35.963Z,8.2
2023-02-04T15:32:37.917Z,10.9
2023-02-04T15:35:39.888Z,9.2
2023-02-04T15:38:41.836Z,9.2
2023-02-04T15:41:43.760Z,5.6
2023-02-04T15:44:45.732Z,12
2023-02-04T15:47:47.678Z,10
2023-02-04T15:50:49.660Z,11.1
2023-02-04T15:53:51.611Z,9.2
2023-02-04T15:56:53.572Z,7.5
2023-02-04T15:59:55.567Z,9.5
2023-02-04T16:02:57.580Z,11.3
2023-02-04T16:05:59.470Z,9.3
2023-02-04T16:09:01.446Z,8.7
2023-02-04T16:12:03.411Z,7.5
2023-02-04T16:15:05.402Z,10.1
2023-02-04T16:18:07.353Z,10.7
2023-02-04T16:21:09.319Z,9.6
2023-02-04T16:24:11.241Z,7.7
2023-02-04T16:27:13.248Z,6.7
2023-02-04T16:30:15.164Z,11.1
2023-02-04T16:33:17.131Z,8.3
2023-02-04T16:36:19.151Z,9.3
2023-02-04T16:39:21.046Z,9.8
2023-02-04T16:42:23.031Z,8.4
2023-02-04T16:45:24.979Z,4.2
2023-02-04T16:48:26.939Z,7.1
2023-02-04T16:51:28.943Z,6.8
2023-02-04T16:54:30.876Z,6.9
2023-02-04T16:57:33.026Z,6
2023-02-04T17:00:34.781Z,8.9
2023-02-04T17:03:36.786Z,8.9
2023-02-04T17:06:38.721Z,6.5
2023-02-04T17:09:40.679Z,11
2023-02-04T17:12:42.624Z,9.3
2023-02-04T17:15:44.633Z,6.5
2023-02-04T17:18:46.550Z,11.1
2023-02-04T17:21:48.512Z,7.7
2023-02-04T17:24:50.512Z,6.7
2023-02-04T17:27:52.456Z,9
2023-02-04T17:30:54.440Z,9.4
2023-02-04T17:33:56.360Z,8.1
2023-02-04T17:36:58.335Z,6.9
2023-02-04T17:40:00.302Z,5.8
2023-02-04T17:43:02.258Z,4.8
2023-02-04T17:46:04.246Z,6.1
2023-02-04T17:49:06.190Z,6.9
2023-02-04T17:52:08.159Z,8.2
2023-02-04T17:55:10.175Z,5.4
2023-02-04T17:58:12.120Z,7.5
2023-02-04T18:01:14.275Z,7.8
2023-02-04T18:04:16.034Z,8.1
2023-02-04T18:07:17.978Z,6.2
2023-02-04T18:10:19.915Z,6.9
2023-02-04T18:13:21.865Z,7.3
2023-02-04T18:16:23.885Z,4.4
2023-02-04T18:19:25.836Z,9.5
2023-02-04T18:22:27.750Z,7.2
2023-02-04T18:25:29.804Z,8.5
2023-02-04T18:28:31.698Z,8
2023-02-04T18:31:33.733Z,13.8
2023-02-04T18:34:35.602Z,10.4
2023-02-04T18:37:37.584Z,12.3
2023-02-04T18:40:41.468Z,6.5
2023-02-04T18:43:41.521Z,7.4
2023-02-04T18:46:43.462Z,7.6
2023-02-04T18:49:45.430Z,5.7
2023-02-04T18:52:47.398Z,7.2
2023-02-04T18:55:49.363Z,8.3
2023-02-04T18:58:51.315Z,8.9
2023-02-04T19:01:53.264Z,7.3
2023-02-04T19:05:11.272Z,8.8
2023-02-04T19:07:57.172Z,7.6
2023-02-04T19:10:59.123Z,10.4
2023-02-04T19:14:01.085Z,7.2
2023-02-04T19:17:03.205Z,9.2
2023-02-04T19:20:04.989Z,7.9
2023-02-04T19:23:06.961Z,8.1
2023-02-04T19:26:08.955Z,11.7
2023-02-04T19:29:10.927Z,9
2023-02-04T19:32:12.877Z,8.6
2023-02-04T19:35:15.072Z,8.1
2023-02-04T19:38:16.786Z,9.8
2023-02-04T19:41:18.741Z,10.5
2023-02-04T19:44:20.735Z,11.7
2023-02-04T19:47:22.687Z,6.6
2023-02-04T19:50:24.631Z,8.7
2023-02-04T19:53:26.628Z,5.9
2023-02-04T19:56:28.582Z,7.2
2023-02-04T19:59:30.507Z,7.1
2023-02-04T20:02:32.634Z,7.5
2023-02-04T20:05:34.733Z,4.4
2023-02-04T20:08:36.373Z,7.2
2023-02-04T20:11:38.361Z,8.6
2023-02-04T20:14:40.437Z,10.1
2023-02-04T20:17:42.283Z,7.5
2023-02-04T20:20:45.459Z,6.2
2023-02-04T20:23:46.180Z,8.1
2023-02-04T20:26:48.128Z,6.9
2023-02-04T20:29:50.129Z,9.8
2023-02-04T20:32:52.042Z,7.8
2023-02-04T20:35:54.015Z,8.2
2023-02-04T20:38:55.983Z,9.4
2023-02-04T20:41:57.928Z,11.7
2023-02-04T20:44:59.895Z,12.8
2023-02-04T20:48:01.901Z,12
2023-02-04T20:51:03.839Z,10.3
2023-02-04T20:54:05.796Z,12
2023-02-04T20:57:07.719Z,12.2
2023-02-04T21:00:09.714Z,8.6
2023-02-04T21:03:11.664Z,13.9
2023-02-04T21:06:13.638Z,10.4
2023-02-04T21:09:15.593Z,10.9
2023-02-04T21:12:17.528Z,11.8
2023-02-04T21:15:19.478Z,10
2023-02-04T21:18:21.441Z,9.6
2023-02-04T21:21:23.393Z,12.4
2023-02-04T21:24:25.353Z,13.3
2023-02-04T21:27:27.327Z,12.5
2023-02-04T21:30:29.259Z,10.3
2023-02-04T21:33:31.267Z,10.3
2023-02-04T21:36:33.181Z,15.4
2023-02-04T21:39:35.202Z,12.6
2023-02-04T21:42:37.114Z,9.2
2023-02-04T21:45:39.079Z,11.5
2023-02-04T21:48:41.049Z,14.1
2023-02-04T21:51:43.006Z,8
2023-02-04T21:54:45.005Z,11.2
2023-02-04T21:57:46.922Z,10.8
2023-02-04T22:00:48.910Z,11.1
2023-02-04T22:03:50.861Z,8.8
2023-02-04T22:06:52.781Z,10.2
2023-02-04T22:09:54.748Z,13.6
2023-02-04T22:12:56.760Z,10.9
2023-02-04T22:15:58.752Z,11.1
2023-02-04T22:19:00.636Z,8.8
2023-02-04T22:22:02.625Z,10
2023-02-04T22:25:04.570Z,8.9
2023-02-04T22:28:06.615Z,8.7
2023-02-04T22:31:08.578Z,11.9
2023-02-04T22:34:10.464Z,7.3
2023-02-04T22:37:12.447Z,9
2023-02-04T22:40:14.402Z,12
2023-02-04T22:43:16.335Z,12.5
2023-02-04T22:46:18.352Z,15
2023-02-04T22:49:20.235Z,9
2023-02-04T22:52:22.204Z,11.3
2023-02-04T22:55:24.148Z,13.7
2023-02-04T22:58:26.154Z,7.3
2023-02-04T23:01:28.054Z,10
2023-02-04T23:04:30.047Z,9.5
2023-02-04T23:07:31.994Z,6.9
2023-02-04T23:10:33.936Z,8.9
2023-02-04T23:13:36.006Z,7.7
2023-02-04T23:16:37.987Z,8
2023-02-04T23:19:39.831Z,7.1
2023-02-04T23:22:41.798Z,7.8
2023-02-04T23:25:43.763Z,9.1
2023-02-04T23:28:45.716Z,8.3
2023-02-04T23:31:47.754Z,7.5
2023-02-04T23:34:49.608Z,7.5
2023-02-04T23:37:51.563Z,5.5
2023-02-04T23:40:53.515Z,9.5
2023-02-04T23:43:55.485Z,8.6
2023-02-04T23:46:57.460Z,8.1
2023-02-04T23:49:59.416Z,8.6
2023-02-04T23:53:01.359Z,7
2023-02-04T23:56:03.330Z,8.1
2023-02-04T23:59:05.270Z,11.8
